createdAt,value
2023-01-08T00:02:00.906Z,47.50
2023-01-08T00:07:06.904Z,46.40
2023-01-08T00:12:12.643Z,51.90
2023-01-08T00:17:18.748Z,51.90
2023-01-08T00:22:24.739Z,44.20
2023-01-08T00:27:30.453Z,53.20
2023-01-08T00:32:36.327Z,45.70
2023-01-08T00:37:42.318Z,47.10
2023-01-08T00:42:48.439Z,47.20
2023-01-08T00:47:54.282Z,40.90
2023-01-08T00:53:00.932Z,45.80
2023-01-08T00:58:06.746Z,41.00
2023-01-08T01:03:12.927Z,37.80
2023-01-08T01:08:18.832Z,43.80
2023-01-08T01:13:24.939Z,38.50
2023-01-08T01:18:31.222Z,36.70
2023-01-08T01:23:37.098Z,38.80
2023-01-08T01:28:43.049Z,41.10
2023-01-08T01:33:48.808Z,38.70
2023-01-08T01:38:56.442Z,37.40
2023-01-08T01:44:42.347Z,35.20
2023-01-08T01:49:56.402Z,33.90
2023-01-08T01:55:03.292Z,35.30
2023-01-08T02:00:11.251Z,37.30
2023-01-08T02:05:23.146Z,32.20
2023-01-08T02:10:39.311Z,33.00
2023-01-08T02:15:55.775Z,37.10
2023-01-08T02:21:07.664Z,30.10
2023-01-08T02:26:26.559Z,35.00
2023-01-08T02:31:35.589Z,33.00
2023-01-08T02:36:43.689Z,29.20
2023-01-08T02:42:01.932Z,29.10
2023-01-08T02:47:12.163Z,25.10
2023-01-08T02:52:19.748Z,29.70
2023-01-08T02:57:26.806Z,25.60
2023-01-08T03:02:36.140Z,26.50
2023-01-08T03:07:42.144Z,20.70
2023-01-08T03:12:55.956Z,30.10
2023-01-08T03:18:07.577Z,26.10
2023-01-08T03:23:16.257Z,23.80
2023-01-08T03:28:30.206Z,24.60
2023-01-08T03:33:38.120Z,23.30
2023-01-08T03:38:50.933Z,22.80
2023-01-08T03:43:57.473Z,23.90
2023-01-08T03:49:05.318Z,24.60
2023-01-08T03:54:14.745Z,22.50
2023-01-08T03:59:20.407Z,19.40
2023-01-08T04:04:26.458Z,18.90
2023-01-08T04:09:32.312Z,23.60
2023-01-08T04:14:37.934Z,20.40
2023-01-08T04:19:43.785Z,19.90
2023-01-08T04:24:49.495Z,20.50
2023-01-08T04:29:55.353Z,18.30
2023-01-08T04:35:01.280Z,18.70
2023-01-08T04:40:09.359Z,19.00
2023-01-08T04:45:15.298Z,23.80
2023-01-08T04:50:21.444Z,21.70
2023-01-08T04:55:27.502Z,21.90
2023-01-08T05:00:33.519Z,18.50
2023-01-08T05:05:39.367Z,21.20
2023-01-08T05:10:45.186Z,17.60
2023-01-08T05:15:51.198Z,18.60
2023-01-08T05:20:59.605Z,17.20
2023-01-08T05:26:06.820Z,21.80
2023-01-08T05:31:13.022Z,20.10
2023-01-08T05:36:19.592Z,18.90
2023-01-08T05:50:09.193Z,18.00
2023-01-08T05:55:15.223Z,22.10
2023-01-08T06:00:21.892Z,22.40
2023-01-08T06:05:29.357Z,19.00
2023-01-08T06:10:35.322Z,21.70
2023-01-08T06:15:41.597Z,21.30
2023-01-08T06:20:47.517Z,20.20
2023-01-08T06:25:56.464Z,19.60
2023-01-08T06:31:03.753Z,17.80
2023-01-08T06:36:11.156Z,18.30
2023-01-08T06:41:18.047Z,19.30
2023-01-08T06:46:24.186Z,17.90
2023-01-08T06:51:31.012Z,18.00
2023-01-08T06:56:52.373Z,21.70
2023-01-08T07:01:59.657Z,17.90
2023-01-08T07:07:05.913Z,20.40
2023-01-08T07:12:14.894Z,18.20
2023-01-08T07:17:21.895Z,19.20
2023-01-08T07:22:29.609Z,23.60
2023-01-08T07:27:36.555Z,24.40
2023-01-08T07:32:42.932Z,22.30
2023-01-08T07:37:49.811Z,23.50
2023-01-08T07:43:03.359Z,23.10
2023-01-08T07:48:16.576Z,25.20
2023-01-08T07:53:23.343Z,21.40
2023-01-08T07:58:30.148Z,24.90
2023-01-08T08:03:36.118Z,22.20
2023-01-08T08:08:43.110Z,22.30
2023-01-08T08:13:53.058Z,32.20
2023-01-08T08:19:01.033Z,28.20
2023-01-08T08:24:08.735Z,28.20
2023-01-08T08:29:15.489Z,32.30
2023-01-08T08:34:22.679Z,25.90
2023-01-08T08:39:34.577Z,24.90
2023-01-08T08:44:42.947Z,25.20
2023-01-08T08:49:50.860Z,26.00
2023-01-08T08:54:58.068Z,27.60
2023-01-08T09:00:05.500Z,35.50
2023-01-08T09:05:12.466Z,21.90
2023-01-08T09:10:18.930Z,24.90
2023-01-08T09:15:24.748Z,27.50
2023-01-08T09:20:32.056Z,24.60
2023-01-08T09:25:38.565Z,23.00
2023-01-08T09:30:45.066Z,30.40
2023-01-08T09:35:51.325Z,31.00
2023-01-08T09:41:03.866Z,39.00
2023-01-08T09:46:12.089Z,38.20
2023-01-08T09:51:20.776Z,28.60
2023-01-08T09:56:28.375Z,45.30
2023-01-08T10:01:38.431Z,33.10
2023-01-08T10:06:51.148Z,26.90
2023-01-08T10:12:00.616Z,29.10
2023-01-08T10:17:20.929Z,24.10
2023-01-08T10:22:34.124Z,64.50
2023-01-08T10:27:48.702Z,25.50
2023-01-08T10:32:56.481Z,27.20
2023-01-08T10:38:03.327Z,36.50
2023-01-08T10:43:14.442Z,28.80
2023-01-08T10:53:30.921Z,37.80
2023-01-08T10:58:45.055Z,50.60
2023-01-08T11:03:55.849Z,69.70
2023-01-08T11:09:04.767Z,33.20
2023-01-08T11:14:21.896Z,31.10
2023-01-08T11:19:34.043Z,37.00
2023-01-08T11:24:42.409Z,28.00
2023-01-08T11:29:57.728Z,34.20
2023-01-08T11:35:10.267Z,29.50
2023-01-08T11:40:28.286Z,24.50
2023-01-08T11:45:50.107Z,26.80
2023-01-08T11:51:19.040Z,42.60
2023-01-08T11:56:38.839Z,26.80
2023-01-08T12:01:55.628Z,39.80
2023-01-08T12:07:11.628Z,38.70
2023-01-08T12:12:33.591Z,66.00
2023-01-08T12:18:04.604Z,34.20
2023-01-08T12:23:33.192Z,36.10
2023-01-08T12:29:09.446Z,32.00
2023-01-08T12:34:20.782Z,34.20
2023-01-08T12:39:33.886Z,28.80
2023-01-08T12:44:41.111Z,32.60
2023-01-08T12:50:00.287Z,27.60
2023-01-08T12:55:17.504Z,35.50
2023-01-08T13:00:34.249Z,36.30
2023-01-08T13:05:42.203Z,38.50
2023-01-08T13:10:54.381Z,30.30
2023-01-08T13:16:20.044Z,37.40
2023-01-08T13:21:42.822Z,33.30
2023-01-08T13:26:49.481Z,32.40
2023-01-08T13:31:57.463Z,33.60
2023-01-08T13:37:03.641Z,35.30
2023-01-08T13:42:25.072Z,35.20
2023-01-08T13:47:35.673Z,37.80
2023-01-08T13:52:46.121Z,38.70
2023-01-08T13:57:58.162Z,36.70
2023-01-08T14:03:06.051Z,37.70
2023-01-08T14:08:24.115Z,34.10
2023-01-08T14:13:34.372Z,34.90
2023-01-08T14:18:43.277Z,42.00
2023-01-08T14:23:54.098Z,35.30
2023-01-08T14:29:02.401Z,40.90
2023-01-08T14:34:10.636Z,46.60
2023-01-08T14:39:24.944Z,46.60
2023-01-08T14:44:38.056Z,61.80
2023-01-08T14:49:52.615Z,53.80
2023-01-08T14:55:03.230Z,72.30
2023-01-08T15:00:19.304Z,46.00
2023-01-08T15:05:29.789Z,42.10
2023-01-08T15:10:39.116Z,52.60
2023-01-08T15:15:56.433Z,49.10
2023-01-08T15:21:02.811Z,45.90
2023-01-08T15:26:13.847Z,42.50
2023-01-08T15:31:27.853Z,64.30
2023-01-08T15:36:33.789Z,43.40
2023-01-08T15:41:59.022Z,46.00
2023-01-08T15:47:08.367Z,41.90
2023-01-08T15:52:14.568Z,44.20
2023-01-08T15:57:23.097Z,53.10
2023-01-08T16:02:28.987Z,46.40
2023-01-08T16:07:34.821Z,48.80
2023-01-08T16:12:40.613Z,64.70
2023-01-08T16:17:46.891Z,37.30
2023-01-08T16:22:57.844Z,36.50
2023-01-08T16:28:05.291Z,38.00
2023-01-08T16:33:11.440Z,37.80
2023-01-08T16:38:19.555Z,39.00
2023-01-08T16:43:25.976Z,46.90
2023-01-08T16:48:31.806Z,47.70
2023-01-08T16:53:37.967Z,38.80
2023-01-08T16:58:43.781Z,43.20
2023-01-08T17:03:49.776Z,47.70
2023-01-08T17:08:58.179Z,62.20
2023-01-08T17:14:04.085Z,46.10
2023-01-08T17:19:10.201Z,47.70
2023-01-08T17:24:16.281Z,50.30
2023-01-08T17:29:23.406Z,49.00
2023-01-08T17:34:29.157Z,49.10
2023-01-08T17:39:34.936Z,49.50
2023-01-08T17:44:40.759Z,62.90
2023-01-08T17:49:48.703Z,47.00
2023-01-08T17:54:54.929Z,47.80
2023-01-08T18:00:00.821Z,49.30
2023-01-08T18:05:09.585Z,48.60
2023-01-08T18:10:15.935Z,56.70
2023-01-08T18:15:21.965Z,42.10
2023-01-08T18:20:27.962Z,59.10
2023-01-08T18:25:33.904Z,44.80
2023-01-08T18:30:39.584Z,47.30
2023-01-08T18:35:45.280Z,47.50
2023-01-08T18:40:53.388Z,48.60
2023-01-08T18:46:01.798Z,52.30
2023-01-08T18:51:08.087Z,46.90
2023-01-08T18:56:17.971Z,44.50
2023-01-08T19:01:24.411Z,46.40
2023-01-08T19:06:30.659Z,50.00
2023-01-08T19:11:36.602Z,48.70
2023-01-08T19:16:48.369Z,52.40
2023-01-08T19:21:54.541Z,59.40
2023-01-08T19:27:00.443Z,58.90
2023-01-08T19:32:07.625Z,49.60
2023-01-08T19:37:14.875Z,56.40
2023-01-08T19:42:41.270Z,59.20
2023-01-08T19:47:47.480Z,57.40
2023-01-08T19:52:53.321Z,52.70
2023-01-08T19:58:00.127Z,53.00
2023-01-08T20:03:06.560Z,61.10
2023-01-08T20:08:12.680Z,65.00
2023-01-08T20:13:19.452Z,53.70
2023-01-08T20:18:25.118Z,54.50
2023-01-08T20:23:31.093Z,64.80
2023-01-08T20:28:39.157Z,58.70
2023-01-08T20:33:46.438Z,57.80
2023-01-08T20:38:54.907Z,66.60
2023-01-08T20:44:03.675Z,64.20
2023-01-08T20:49:13.303Z,64.00
2023-01-08T20:54:19.160Z,54.20
2023-01-08T20:59:25.576Z,55.20
2023-01-08T21:04:31.525Z,61.40
2023-01-08T21:09:39.569Z,56.40
2023-01-08T21:14:46.145Z,59.20
2023-01-08T21:19:52.231Z,62.00
2023-01-08T21:24:57.947Z,55.60
2023-01-08T21:30:04.332Z,54.50
2023-01-08T21:35:10.636Z,59.20
2023-01-08T21:40:17.043Z,57.40
2023-01-08T21:45:26.036Z,55.80
2023-01-08T21:50:32.073Z,57.70
2023-01-08T21:55:37.877Z,52.60
2023-01-08T22:03:30.862Z,54.10
2023-01-08T22:08:36.889Z,57.50
2023-01-08T22:13:42.613Z,54.70
2023-01-08T22:18:48.399Z,60.50
2023-01-08T22:23:55.133Z,59.50
2023-01-08T22:29:04.020Z,54.00
2023-01-08T22:34:13.264Z,62.60
2023-01-08T22:39:19.350Z,59.00
2023-01-08T22:44:25.225Z,55.40
2023-01-08T22:49:31.203Z,59.60
2023-01-08T22:54:39.035Z,66.70
2023-01-08T22:59:44.918Z,60.30
2023-01-08T23:04:52.876Z,64.50
2023-01-08T23:09:58.572Z,66.40
2023-01-08T23:15:06.098Z,66.80
2023-01-08T23:20:15.010Z,57.30
2023-01-08T23:25:21.164Z,61.20
2023-01-08T23:30:31.449Z,64.90
2023-01-08T23:35:37.211Z,56.80
2023-01-08T23:40:45.263Z,54.30
2023-01-08T23:45:51.361Z,58.90
2023-01-08T23:50:57.189Z,51.60
2023-01-08T23:56:03.085Z,62.90
